createdAt,value
2019-05-28T00:02:06.686Z,69.10
2019-05-28T00:04:35.171Z,69.40
2019-05-28T00:07:03.631Z,68.70
2019-05-28T00:09:31.919Z,69.00
2019-05-28T00:12:00.273Z,70.00
2019-05-28T00:14:28.734Z,68.60
2019-05-28T00:16:56.949Z,68.60
2019-05-28T00:19:25.330Z,69.40
2019-05-28T00:21:53.529Z,70.00
2019-05-28T00:24:21.763Z,69.00
2019-05-28T00:26:49.974Z,68.90
2019-05-28T00:29:18.186Z,69.30
2019-05-28T00:31:46.511Z,69.30
2019-05-28T00:34:14.898Z,69.40
2019-05-28T00:36:43.123Z,69.20
2019-05-28T00:39:11.433Z,69.90
2019-05-28T00:41:40.339Z,70.80
2019-05-28T00:44:08.550Z,70.90
2019-05-28T00:46:36.874Z,70.30
2019-05-28T00:49:05.159Z,71.10
2019-05-28T00:51:34.494Z,71.50
2019-05-28T00:54:02.845Z,71.40
2019-05-28T00:56:31.068Z,71.70
2019-05-28T00:58:59.282Z,71.90
2019-05-28T01:01:27.636Z,71.70
2019-05-28T01:03:55.920Z,71.80
2019-05-28T01:06:24.210Z,72.20
2019-05-28T01:08:52.595Z,72.60
2019-05-28T01:11:20.938Z,73.00
2019-05-28T01:13:49.137Z,73.50
2019-05-28T01:16:17.900Z,73.30
2019-05-28T01:18:46.068Z,73.60
2019-05-28T01:21:14.350Z,73.70
2019-05-28T01:23:42.614Z,74.70
2019-05-28T01:26:12.029Z,74.40
2019-05-28T01:28:40.241Z,74.20
2019-05-28T01:31:08.483Z,74.30
2019-05-28T01:33:36.687Z,74.60
2019-05-28T01:36:05.084Z,74.80
2019-05-28T01:38:33.362Z,74.60
2019-05-28T01:41:01.698Z,74.70
2019-05-28T01:43:29.927Z,74.60
2019-05-28T01:45:58.254Z,75.00
2019-05-28T01:48:26.468Z,75.30
2019-05-28T01:50:54.784Z,75.50
2019-05-28T01:53:22.970Z,75.40
2019-05-28T01:55:51.194Z,75.80
2019-05-28T01:58:19.607Z,76.00
2019-05-28T02:00:48.195Z,75.90
2019-05-28T02:03:16.416Z,76.10
2019-05-28T02:05:45.006Z,76.00
2019-05-28T02:08:13.322Z,75.70
2019-05-28T02:10:41.537Z,75.70
2019-05-28T02:13:09.758Z,75.80
2019-05-28T02:15:37.984Z,75.90
2019-05-28T02:18:06.208Z,76.40
2019-05-28T02:20:34.439Z,76.20
2019-05-28T02:23:02.656Z,76.40
2019-05-28T02:25:30.874Z,76.90
2019-05-28T02:27:59.090Z,77.20
2019-05-28T02:30:27.315Z,77.20
2019-05-28T02:32:55.791Z,77.90
2019-05-28T02:35:24.095Z,77.50
2019-05-28T02:37:52.319Z,77.50
2019-05-28T02:40:21.123Z,77.50
2019-05-28T02:42:49.812Z,78.00
2019-05-28T02:45:18.093Z,78.20
2019-05-28T02:47:46.321Z,77.90
2019-05-28T02:50:14.534Z,77.80
2019-05-28T02:52:42.766Z,77.80
2019-05-28T02:55:11.084Z,77.90
2019-05-28T02:57:41.107Z,77.70
2019-05-28T03:00:14.375Z,77.50
2019-05-28T03:02:46.103Z,77.80
2019-05-28T03:05:14.683Z,77.30
2019-05-28T03:07:43.308Z,77.10
2019-05-28T03:10:11.738Z,77.70
2019-05-28T03:12:40.055Z,78.20
2019-05-28T03:15:27.708Z,78.10
2019-05-28T03:17:55.904Z,77.40
2019-05-28T03:20:24.183Z,77.10
2019-05-28T03:22:52.397Z,77.20
2019-05-28T03:25:20.789Z,77.10
2019-05-28T03:27:49.114Z,76.50
2019-05-28T03:30:17.341Z,77.30
2019-05-28T03:32:45.576Z,76.50
2019-05-28T03:35:13.768Z,77.60
2019-05-28T03:37:42.147Z,76.90
2019-05-28T03:40:10.381Z,77.00
2019-05-28T03:42:38.584Z,77.50
2019-05-28T03:45:06.976Z,76.80
2019-05-28T03:47:35.180Z,76.60
2019-05-28T03:50:07.445Z,76.60
2019-05-28T03:52:35.645Z,76.60
2019-05-28T03:55:08.061Z,76.70
2019-05-28T03:57:36.273Z,76.50
2019-05-28T04:00:05.367Z,77.30
2019-05-28T04:02:33.571Z,77.00
2019-05-28T04:05:01.845Z,77.00
2019-05-28T04:07:30.076Z,77.20
2019-05-28T04:09:58.368Z,77.10
2019-05-28T04:12:26.580Z,77.20
2019-05-28T04:14:54.798Z,77.40
2019-05-28T04:17:23.006Z,77.50
2019-05-28T04:19:51.269Z,77.60
2019-05-28T04:22:19.494Z,77.30
2019-05-28T04:24:47.820Z,77.30
2019-05-28T04:27:16.072Z,78.00
2019-05-28T04:29:44.290Z,77.80
2019-05-28T04:32:12.480Z,77.70
2019-05-28T04:34:40.807Z,77.70
2019-05-28T04:37:09.056Z,77.50
2019-05-28T04:39:37.905Z,77.60
2019-05-28T04:42:06.148Z,77.30
2019-05-28T04:44:34.390Z,77.40
2019-05-28T04:47:02.592Z,77.70
2019-05-28T04:49:30.801Z,78.00
2019-05-28T04:51:59.023Z,77.10
2019-05-28T04:54:27.241Z,77.30
2019-05-28T04:56:55.500Z,77.40
2019-05-28T04:59:23.772Z,77.20
2019-05-28T05:01:52.029Z,77.40
2019-05-28T05:04:20.233Z,77.60
2019-05-28T05:06:48.432Z,77.80
2019-05-28T05:09:16.676Z,77.60
2019-05-28T05:11:44.894Z,77.70
2019-05-28T05:14:13.207Z,77.80
2019-05-28T05:16:41.410Z,77.70
2019-05-28T05:19:10.632Z,77.60
2019-05-28T05:21:38.869Z,77.70
2019-05-28T05:24:07.513Z,77.80
2019-05-28T05:26:35.839Z,77.90
2019-05-28T05:29:04.109Z,77.50
2019-05-28T05:31:32.384Z,77.40
2019-05-28T05:34:00.600Z,77.00
2019-05-28T05:36:28.881Z,77.00
2019-05-28T05:38:57.097Z,77.50
2019-05-28T05:41:25.309Z,77.20
2019-05-28T05:43:53.546Z,76.60
2019-05-28T05:46:21.780Z,75.70
2019-05-28T05:48:50.050Z,76.30
2019-05-28T05:51:18.255Z,76.70
2019-05-28T05:53:46.474Z,75.10
2019-05-28T05:56:14.748Z,75.80
2019-05-28T05:58:43.043Z,75.30
2019-05-28T06:01:12.930Z,75.40
2019-05-28T06:03:42.236Z,75.80
2019-05-28T06:38:27.534Z,74.90
2019-05-28T06:40:55.910Z,75.10
2019-05-28T06:43:24.135Z,73.70
2019-05-28T06:45:52.605Z,73.40
2019-05-28T06:48:20.915Z,73.90
2019-05-28T06:50:49.141Z,74.10
2019-05-28T06:53:17.383Z,73.70
2019-05-28T06:55:45.616Z,73.50
2019-05-28T06:58:14.855Z,73.50
2019-05-28T07:00:43.340Z,73.00
2019-05-28T07:03:11.555Z,71.80
2019-05-28T07:05:39.883Z,72.50
2019-05-28T07:08:08.103Z,72.80
2019-05-28T07:11:00.160Z,72.00
2019-05-28T07:13:28.365Z,71.30
2019-05-28T07:15:56.637Z,71.10
2019-05-28T07:18:24.867Z,70.10
2019-05-28T07:20:53.079Z,69.30
2019-05-28T07:23:21.287Z,69.30
2019-05-28T07:25:49.502Z,69.30
2019-05-28T07:28:17.902Z,68.90
2019-05-28T07:30:46.205Z,69.30
2019-05-28T07:33:14.655Z,69.30
2019-05-28T07:35:46.199Z,69.90
2019-05-28T07:38:12.865Z,70.60
2019-05-28T07:40:41.066Z,70.80
2019-05-28T07:43:30.360Z,68.60
2019-05-28T07:45:58.641Z,68.70
2019-05-28T07:48:27.042Z,67.20
2019-05-28T07:50:55.290Z,67.50
2019-05-28T07:53:38.667Z,68.40
2019-05-28T07:55:53.765Z,67.40
2019-05-28T07:58:22.060Z,66.60
2019-05-28T08:00:50.282Z,67.50
2019-05-28T08:03:18.503Z,67.50
2019-05-28T08:05:46.748Z,68.50
2019-05-28T08:08:17.154Z,68.50
2019-05-28T08:10:45.624Z,67.00
2019-05-28T08:13:14.216Z,65.90
2019-05-28T08:15:42.927Z,65.60
2019-05-28T08:18:11.208Z,65.20
2019-05-28T08:20:39.426Z,66.30
2019-05-28T08:23:08.257Z,65.30
2019-05-28T08:25:46.756Z,65.40
2019-05-28T08:28:19.277Z,65.00
2019-05-28T08:30:36.635Z,65.50
2019-05-28T08:33:24.322Z,64.30
2019-05-28T08:35:52.527Z,64.50
2019-05-28T08:38:20.758Z,63.40
2019-05-28T08:40:48.989Z,62.80
2019-05-28T08:43:17.349Z,61.50
2019-05-28T08:45:45.793Z,62.00
2019-05-28T08:48:14.023Z,63.50
2019-05-28T08:50:42.251Z,62.10
2019-05-28T08:53:10.482Z,61.80
2019-05-28T08:55:38.751Z,61.50
2019-05-28T08:58:07.178Z,61.80
2019-05-28T09:00:42.840Z,62.50
2019-05-28T09:03:11.151Z,59.70
2019-05-28T09:05:39.371Z,60.20
2019-05-28T09:08:07.601Z,59.60
2019-05-28T09:10:35.814Z,59.40
2019-05-28T09:13:04.562Z,59.70
2019-05-28T09:15:32.824Z,59.60
2019-05-28T09:18:01.850Z,60.50
2019-05-28T09:20:30.209Z,59.70
2019-05-28T09:22:58.417Z,59.10
2019-05-28T09:25:26.640Z,59.00
2019-05-28T09:27:55.025Z,59.00
2019-05-28T09:30:23.328Z,60.00
2019-05-28T09:32:51.627Z,59.30
2019-05-28T09:35:19.976Z,58.20
2019-05-28T09:37:49.200Z,59.00
2019-05-28T09:40:17.518Z,58.70
2019-05-28T09:42:45.931Z,57.50
2019-05-28T09:45:22.362Z,56.80
2019-05-28T09:47:44.257Z,56.90
2019-05-28T09:50:29.265Z,56.90
2019-05-28T09:52:54.283Z,56.60
2019-05-28T09:55:13.315Z,56.10
2019-05-28T09:57:47.471Z,55.50
2019-05-28T10:00:15.327Z,55.50
2019-05-28T10:02:43.646Z,56.40
2019-05-28T10:05:11.952Z,56.60
2019-05-28T10:07:40.554Z,56.60
2019-05-28T10:10:08.797Z,56.10
2019-05-28T10:12:37.004Z,57.30
2019-05-28T10:15:07.873Z,58.10
2019-05-28T10:17:36.083Z,57.40
2019-05-28T10:20:06.588Z,58.10
2019-05-28T10:22:34.836Z,57.30
2019-05-28T10:25:04.627Z,57.90
2019-05-28T10:27:32.983Z,58.60
2019-05-28T10:30:01.179Z,58.90
2019-05-28T10:32:29.432Z,58.60
2019-05-28T10:35:03.707Z,57.90
2019-05-28T10:37:27.798Z,56.40
2019-05-28T10:39:56.020Z,56.10
2019-05-28T10:42:24.242Z,57.30
2019-05-28T10:44:52.488Z,58.30
2019-05-28T10:47:20.738Z,57.30
2019-05-28T10:49:51.061Z,58.80
2019-05-28T10:52:19.058Z,57.20
2019-05-28T10:54:47.271Z,56.40
2019-05-28T10:57:15.495Z,56.40
2019-05-28T10:59:43.726Z,55.60
2019-05-28T11:02:12.000Z,56.40
2019-05-28T11:04:40.317Z,57.20
2019-05-28T11:07:08.807Z,57.00
2019-05-28T11:09:37.050Z,57.00
2019-05-28T11:12:05.435Z,56.60
2019-05-28T11:14:33.728Z,55.40
2019-05-28T11:17:01.957Z,56.00
2019-05-28T11:19:30.272Z,56.70
2019-05-28T11:21:58.582Z,56.50
2019-05-28T11:24:26.796Z,55.10
2019-05-28T11:26:55.046Z,56.00
2019-05-28T11:29:23.335Z,57.00
2019-05-28T11:31:51.555Z,57.10
2019-05-28T11:34:19.856Z,55.70
2019-05-28T11:36:48.066Z,55.80
2019-05-28T11:39:16.295Z,56.30
2019-05-28T11:41:44.566Z,56.20
2019-05-28T11:44:13.003Z,56.50
2019-05-28T11:46:41.200Z,56.30
2019-05-28T11:49:09.439Z,56.40
2019-05-28T11:51:37.676Z,55.30
2019-05-28T11:54:05.903Z,55.50
2019-05-28T11:56:34.194Z,55.70
2019-05-28T11:59:02.427Z,55.60
2019-05-28T12:01:34.916Z,55.10
2019-05-28T12:04:00.707Z,53.20
2019-05-28T12:06:29.461Z,52.80
2019-05-28T12:08:57.839Z,53.20
2019-05-28T12:11:26.057Z,54.60
2019-05-28T12:13:54.276Z,54.30
2019-05-28T12:16:22.977Z,53.90
2019-05-28T12:18:51.186Z,53.70
2019-05-28T12:21:19.419Z,54.50
2019-05-28T12:23:47.995Z,54.10
2019-05-28T12:26:16.214Z,53.80
2019-05-28T12:28:44.454Z,53.50
2019-05-28T12:31:12.666Z,53.50
2019-05-28T12:33:40.896Z,53.20
2019-05-28T12:36:09.574Z,53.10
2019-05-28T12:38:57.518Z,53.00
2019-05-28T12:41:25.883Z,53.40
2019-05-28T12:43:54.130Z,52.80
2019-05-28T12:46:22.335Z,52.60
2019-05-28T12:48:50.599Z,52.40
2019-05-28T12:51:18.865Z,52.70
2019-05-28T12:53:50.749Z,52.20
2019-05-28T12:56:17.166Z,52.80
2019-05-28T12:58:45.450Z,52.60
2019-05-28T13:01:13.740Z,53.20
2019-05-28T13:03:42.019Z,52.40
2019-05-28T13:06:10.935Z,52.60
2019-05-28T13:08:39.163Z,53.20
2019-05-28T13:11:08.205Z,53.30
2019-05-28T13:13:36.432Z,52.20
2019-05-28T13:16:04.721Z,51.70
2019-05-28T13:18:33.075Z,52.50
2019-05-28T13:21:01.369Z,51.30
2019-05-28T13:23:29.570Z,51.50
2019-05-28T13:25:58.151Z,52.30
2019-05-28T13:28:26.393Z,52.40
2019-05-28T13:30:54.760Z,51.90
2019-05-28T13:33:23.331Z,52.30
2019-05-28T13:35:51.710Z,51.80
2019-05-28T13:38:26.880Z,52.30
2019-05-28T13:40:50.019Z,53.70
2019-05-28T13:43:18.269Z,51.70
2019-05-28T13:45:46.541Z,52.10
2019-05-28T13:48:14.755Z,51.20
2019-05-28T13:50:42.974Z,50.10
2019-05-28T13:53:11.273Z,50.40
2019-05-28T13:55:39.485Z,51.10
2019-05-28T13:58:08.063Z,49.20
2019-05-28T14:00:36.295Z,49.00
2019-05-28T14:03:05.089Z,50.30
2019-05-28T14:05:33.455Z,50.90
2019-05-28T14:08:01.663Z,50.90
2019-05-28T14:10:30.102Z,51.30
2019-05-28T14:12:58.614Z,52.60
2019-05-28T14:15:27.633Z,54.30
2019-05-28T14:17:56.181Z,52.70
2019-05-28T14:20:24.408Z,52.70
2019-05-28T14:22:53.143Z,52.50
2019-05-28T14:25:21.849Z,55.10
2019-05-28T14:27:50.115Z,52.50
2019-05-28T14:30:19.875Z,51.90
2019-05-28T14:32:48.494Z,51.90
2019-05-28T14:35:17.014Z,52.60
2019-05-28T14:37:45.507Z,52.80
2019-05-28T14:40:14.263Z,53.50
2019-05-28T14:42:42.471Z,53.40
2019-05-28T14:45:10.902Z,53.40
2019-05-28T14:47:39.195Z,53.60
2019-05-28T14:50:07.872Z,53.70
2019-05-28T14:52:36.297Z,52.70
2019-05-28T14:55:07.607Z,53.20
2019-05-28T14:57:35.915Z,53.40
2019-05-28T15:00:16.356Z,52.80
2019-05-28T15:02:44.635Z,51.30
2019-05-28T15:05:13.865Z,50.90
2019-05-28T15:07:42.087Z,50.10
2019-05-28T15:10:11.573Z,49.70
2019-05-28T15:12:40.361Z,49.40
2019-05-28T15:21:02.407Z,49.30
2019-05-28T15:23:30.641Z,48.80
2019-05-28T15:25:58.881Z,49.50
2019-05-28T15:28:27.092Z,49.70
2019-05-28T15:38:17.036Z,50.50
2019-05-28T15:40:45.695Z,49.80
2019-05-28T15:43:13.921Z,49.40
2019-05-28T15:45:42.156Z,50.20
2019-05-28T15:48:10.391Z,50.30
2019-05-28T15:50:38.935Z,50.80
2019-05-28T15:53:07.433Z,50.80
2019-05-28T15:55:35.754Z,50.70
2019-05-28T15:58:05.208Z,50.40
2019-05-28T16:00:33.459Z,50.20
2019-05-28T16:03:01.695Z,50.40
2019-05-28T16:05:29.994Z,49.90
2019-05-28T16:07:58.221Z,50.20
2019-05-28T16:10:26.427Z,49.10
2019-05-28T16:12:54.653Z,49.70
2019-05-28T16:15:22.874Z,48.70
2019-05-28T16:17:51.195Z,49.40
2019-05-28T16:20:19.467Z,49.50
2019-05-28T16:22:47.737Z,49.00
2019-05-28T16:25:15.973Z,48.30
2019-05-28T16:27:44.267Z,49.60
2019-05-28T16:30:14.399Z,49.50
2019-05-28T16:32:42.631Z,48.50
2019-05-28T16:35:11.151Z,48.20
2019-05-28T16:37:39.456Z,48.80
2019-05-28T16:40:15.832Z,48.70
2019-05-28T16:42:38.877Z,49.20
2019-05-28T16:45:07.264Z,48.70
2019-05-28T16:47:35.478Z,49.50
2019-05-28T16:50:04.826Z,49.30
2019-05-28T16:52:33.198Z,49.20
2019-05-28T16:55:01.644Z,49.30
2019-05-28T16:57:30.330Z,49.00
2019-05-28T16:59:58.618Z,48.90
2019-05-28T17:02:26.870Z,49.00
2019-05-28T17:04:55.133Z,49.20
2019-05-28T17:07:23.410Z,49.20
2019-05-28T17:09:51.643Z,49.30
2019-05-28T17:12:19.917Z,48.70
2019-05-28T17:14:48.146Z,49.20
2019-05-28T17:17:16.413Z,48.70
2019-05-28T17:19:44.974Z,49.00
2019-05-28T17:22:13.247Z,48.50
2019-05-28T17:24:41.484Z,48.60
2019-05-28T17:27:09.858Z,48.70
2019-05-28T17:29:38.322Z,48.70
2019-05-28T17:32:07.469Z,48.90
2019-05-28T17:34:36.755Z,49.40
2019-05-28T17:37:05.098Z,48.10
2019-05-28T17:39:33.401Z,47.90
2019-05-28T17:42:02.150Z,48.20
2019-05-28T17:44:30.388Z,48.40
2019-05-28T17:46:58.700Z,48.10
2019-05-28T17:49:26.894Z,48.60
2019-05-28T17:51:55.115Z,48.40
2019-05-28T17:54:23.546Z,48.80
2019-05-28T17:56:51.786Z,48.60
2019-05-28T17:59:21.217Z,48.60
2019-05-28T18:01:49.474Z,48.70
2019-05-28T18:04:17.789Z,48.70
2019-05-28T18:06:46.187Z,49.40
2019-05-28T18:09:14.417Z,49.00
2019-05-28T18:11:42.633Z,48.80
2019-05-28T18:14:10.860Z,49.30
2019-05-28T18:16:39.852Z,49.60
2019-05-28T18:19:08.174Z,48.80
2019-05-28T18:21:36.394Z,49.60
2019-05-28T18:24:04.604Z,49.80
2019-05-28T18:26:33.162Z,50.40
2019-05-28T18:29:01.440Z,49.80
2019-05-28T18:31:29.687Z,50.00
2019-05-28T18:33:58.357Z,50.30
2019-05-28T18:36:26.640Z,50.30
2019-05-28T18:38:54.860Z,50.10
2019-05-28T18:41:23.151Z,49.80
2019-05-28T18:43:51.418Z,50.40
2019-05-28T18:46:19.675Z,50.40
2019-05-28T18:48:48.070Z,50.40
2019-05-28T18:51:16.486Z,51.30
2019-05-28T18:53:44.718Z,51.00
2019-05-28T18:56:17.488Z,51.20
2019-05-28T18:58:43.255Z,51.40
2019-05-28T19:01:11.470Z,51.20
2019-05-28T19:03:39.682Z,51.00
2019-05-28T19:06:10.647Z,50.90
2019-05-28T19:08:38.870Z,51.10
2019-05-28T19:11:08.114Z,51.40
2019-05-28T19:13:36.425Z,51.90
2019-05-28T19:16:04.811Z,51.60
2019-05-28T19:18:33.108Z,51.90
2019-05-28T19:21:01.328Z,51.90
2019-05-28T19:23:29.635Z,51.70
2019-05-28T19:25:58.121Z,52.20
2019-05-28T19:28:26.372Z,52.50
2019-05-28T19:30:54.650Z,52.70
2019-05-28T19:33:22.963Z,53.50
2019-05-28T19:35:51.279Z,52.80
2019-05-28T19:38:19.534Z,52.90
2019-05-28T19:40:47.756Z,53.10
2019-05-28T19:43:16.108Z,53.40
2019-05-28T19:45:44.426Z,53.90
2019-05-28T19:48:12.684Z,53.70
2019-05-28T19:50:40.998Z,53.90
2019-05-28T19:53:09.360Z,53.90
2019-05-28T19:55:37.657Z,54.00
2019-05-28T19:58:06.144Z,53.90
2019-05-28T20:00:34.407Z,54.40
2019-05-28T20:03:02.647Z,55.40
2019-05-28T20:05:30.874Z,54.60
2019-05-28T20:07:59.625Z,54.90
2019-05-28T20:10:27.841Z,55.20
2019-05-28T20:12:56.375Z,55.40
2019-05-28T20:15:25.760Z,55.80
2019-05-28T20:17:56.696Z,56.00
2019-05-28T20:20:25.224Z,56.10
2019-05-28T20:22:54.064Z,56.20
2019-05-28T20:25:22.387Z,56.80
2019-05-28T20:27:51.797Z,57.10
2019-05-28T20:30:21.763Z,57.40
2019-05-28T20:32:51.053Z,57.40
2019-05-28T20:35:19.263Z,57.70
2019-05-28T20:37:47.534Z,58.00
2019-05-28T20:40:15.743Z,58.30
2019-05-28T20:42:43.953Z,58.70
2019-05-28T20:45:12.328Z,59.10
2019-05-28T20:47:40.575Z,59.00
2019-05-28T20:50:09.425Z,59.30
2019-05-28T20:52:38.281Z,58.90
2019-05-28T20:55:07.516Z,58.90
2019-05-28T20:57:35.724Z,58.80
2019-05-28T21:00:07.205Z,58.80
2019-05-28T21:02:35.457Z,59.10
2019-05-28T21:05:05.898Z,59.10
2019-05-28T21:07:34.155Z,59.30
2019-05-28T21:10:02.382Z,59.00
2019-05-28T21:12:43.131Z,58.80
2019-05-28T21:15:00.869Z,58.60
2019-05-28T21:17:29.062Z,58.70
2019-05-28T21:19:57.436Z,58.90
2019-05-28T21:22:27.086Z,59.40
2019-05-28T21:24:56.265Z,59.30
2019-05-28T21:27:24.685Z,59.50
2019-05-28T21:29:54.061Z,59.50
2019-05-28T21:32:22.383Z,60.00
2019-05-28T21:34:53.894Z,59.80
2019-05-28T21:37:20.728Z,59.90
2019-05-28T21:39:49.575Z,60.10
2019-05-28T21:42:18.292Z,60.60
2019-05-28T21:44:46.552Z,60.80
2019-05-28T21:47:16.045Z,60.70
2019-05-28T21:49:44.251Z,61.00
2019-05-28T21:52:12.466Z,61.30
2019-05-28T21:54:40.671Z,61.40
2019-05-28T21:57:08.897Z,62.30
2019-05-28T21:59:37.105Z,61.90
2019-05-28T22:02:05.348Z,62.20
2019-05-28T22:04:33.568Z,62.30
2019-05-28T22:07:01.958Z,62.50
2019-05-28T22:09:30.170Z,62.80
2019-05-28T22:11:59.601Z,62.90
2019-05-28T22:14:27.979Z,63.00
2019-05-28T22:16:59.347Z,63.40
2019-05-28T22:19:26.136Z,63.70
2019-05-28T22:21:54.364Z,64.20
2019-05-28T22:24:23.513Z,64.20
2019-05-28T22:26:51.760Z,64.30
2019-05-28T22:29:21.177Z,64.00
2019-05-28T22:31:49.490Z,64.30
2019-05-28T22:34:17.766Z,64.90
2019-05-28T22:36:46.157Z,65.00
2019-05-28T22:39:14.353Z,65.00
2019-05-28T22:41:43.615Z,65.10
2019-05-28T22:44:12.827Z,65.40
2019-05-28T22:46:41.049Z,65.50
2019-05-28T22:49:09.382Z,66.00
2019-05-28T22:51:37.607Z,66.00
2019-05-28T22:54:06.211Z,66.10
2019-05-28T22:56:34.631Z,66.10
2019-05-28T22:59:02.874Z,66.10
2019-05-28T23:01:31.138Z,66.60
2019-05-28T23:03:59.454Z,66.70
2019-05-28T23:06:27.806Z,67.00
2019-05-28T23:08:56.014Z,67.00
2019-05-28T23:11:24.234Z,67.90
2019-05-28T23:13:52.444Z,68.10
2019-05-28T23:16:20.703Z,68.50
2019-05-28T23:18:48.903Z,68.70
2019-05-28T23:21:17.147Z,68.80
2019-05-28T23:23:45.385Z,69.10
2019-05-28T23:26:13.618Z,69.30
2019-05-28T23:28:41.830Z,69.20
2019-05-28T23:31:10.126Z,69.60
2019-05-28T23:33:38.540Z,70.00
2019-05-28T23:36:06.804Z,70.00
2019-05-28T23:38:34.997Z,70.00
2019-05-28T23:41:03.262Z,70.10
2019-05-28T23:43:32.756Z,70.60
2019-05-28T23:46:01.131Z,70.50
2019-05-28T23:48:29.387Z,70.70
2019-05-28T23:50:57.592Z,71.00
2019-05-28T23:53:25.807Z,71.00
2019-05-28T23:55:55.383Z,70.80
2019-05-28T23:58:23.731Z,71.20
